Time;durP1;ratioP1;P1;durP2;ratioP2;P2;SDS_P1;SDS_P2;PMS_P1;PMS_P2;Temp;Humidity;BMP_temperature;BMP_pressure;BME280_temperature;BME280_humidity;BME280_pressure;Samples;Min_cycle;Max_cycle;Signal;HPM_P1;HPM_P2
2023/11/07 00:02:12;;;;;;;4.22;1.08;;;9.00;99.90;;;;;;4807847;29;20742;-83
2023/11/07 00:04:39;;;;;;;4.32;1.27;;;9.00;99.90;;;;;;4808232;29;20204;-84
2023/11/07 00:07:04;;;;;;;4.50;1.05;;;9.10;99.90;;;;;;4808627;29;20197;-84
2023/11/07 00:09:30;;;;;;;5.05;1.30;;;9.10;99.90;;;;;;4808216;29;20215;-86
2023/11/07 00:11:58;;;;;;;4.00;1.00;;;9.00;99.90;;;;;;4808356;29;20193;-85
2023/11/07 00:14:24;;;;;;;2.70;1.00;;;9.00;99.90;;;;;;4823385;29;20541;-85
2023/11/07 00:16:50;;;;;;;2.83;1.23;;;9.00;99.90;;;;;;4824625;29;20273;-85
2023/11/07 00:19:16;;;;;;;3.95;0.80;;;9.00;99.90;;;;;;4807930;29;20202;-87
2023/11/07 00:21:43;;;;;;;3.28;0.88;;;9.00;99.90;;;;;;4807984;29;20218;-90
2023/11/07 00:24:09;;;;;;;3.30;1.17;;;9.00;99.90;;;;;;4808569;29;20706;-85
2023/11/07 00:26:35;;;;;;;2.35;0.80;;;9.00;99.90;;;;;;4808183;29;20242;-85
2023/11/07 00:29:01;;;;;;;5.32;1.10;;;9.00;99.90;;;;;;4808179;29;20190;-86
2023/11/07 00:31:27;;;;;;;4.25;1.48;;;9.00;99.90;;;;;;4808130;29;20343;-86
2023/11/07 00:33:54;;;;;;;3.20;0.90;;;9.00;99.90;;;;;;4808257;29;20702;-88
2023/11/07 00:36:20;;;;;;;2.75;1.00;;;8.90;99.90;;;;;;4808315;29;20236;-85
2023/11/07 00:38:45;;;;;;;3.55;1.10;;;9.00;99.90;;;;;;4808305;29;20198;-85
2023/11/07 00:41:13;;;;;;;2.53;0.93;;;9.00;99.90;;;;;;4808036;29;20221;-83
2023/11/07 00:43:39;;;;;;;3.55;0.90;;;9.00;99.90;;;;;;4807581;29;20230;-84
2023/11/07 00:46:05;;;;;;;3.85;0.90;;;9.00;99.90;;;;;;4807352;29;20198;-82
2023/11/07 00:48:31;;;;;;;5.15;1.08;;;8.90;99.90;;;;;;4823519;29;20266;-83
2023/11/07 00:50:57;;;;;;;4.90;0.88;;;8.90;99.90;;;;;;4807477;29;20200;-82
2023/11/07 00:53:23;;;;;;;2.25;0.80;;;8.90;99.90;;;;;;4807564;29;20198;-83
2023/11/07 00:55:49;;;;;;;3.63;0.88;;;8.90;99.90;;;;;;4810609;29;20542;-83
2023/11/07 00:58:16;;;;;;;3.03;0.68;;;8.80;99.90;;;;;;4826270;29;20280;-84
2023/11/07 01:00:41;;;;;;;3.72;0.88;;;8.80;99.90;;;;;;4810850;29;20201;-82
2023/11/07 01:03:07;;;;;;;3.25;0.90;;;8.70;99.90;;;;;;4810421;29;20225;-82
2023/11/07 01:05:33;;;;;;;3.17;1.00;;;8.70;99.90;;;;;;4811474;29;20194;-86
2023/11/07 01:08:00;;;;;;;7.05;1.00;;;8.70;99.90;;;;;;4809943;29;20198;-84
2023/11/07 01:10:26;;;;;;;3.10;0.90;;;8.70;99.90;;;;;;4827017;29;20197;-90
2023/11/07 01:12:53;;;;;;;3.45;1.05;;;8.70;99.90;;;;;;4811304;29;20194;-88
2023/11/07 01:15:19;;;;;;;3.78;1.02;;;8.70;99.90;;;;;;4811016;29;20653;-86
2023/11/07 01:17:45;;;;;;;4.40;0.82;;;8.70;99.90;;;;;;4810764;29;20544;-86
2023/11/07 01:20:11;;;;;;;2.58;0.85;;;8.80;99.90;;;;;;4811356;29;20193;-87
2023/11/07 01:22:37;;;;;;;1.70;0.75;;;8.80;99.90;;;;;;4810885;29;20225;-90
2023/11/07 01:25:04;;;;;;;3.85;1.17;;;8.80;99.90;;;;;;4827313;29;20192;-89
2023/11/07 01:27:31;;;;;;;4.80;0.82;;;8.80;99.90;;;;;;4810917;29;20193;-84
2023/11/07 01:29:57;;;;;;;3.70;1.02;;;8.80;99.90;;;;;;4827092;29;20190;-87
2023/11/07 01:32:22;;;;;;;3.17;1.02;;;8.80;99.90;;;;;;4810043;29;20674;-84
2023/11/07 01:34:48;;;;;;;4.15;0.93;;;8.80;99.90;;;;;;4810315;29;20205;-84
2023/11/07 01:37:14;;;;;;;6.93;1.13;;;8.80;99.90;;;;;;4826927;29;20567;-85
2023/11/07 01:39:40;;;;;;;3.45;1.02;;;8.80;99.90;;;;;;4810251;29;20292;-85
2023/11/07 01:42:08;;;;;;;5.53;0.82;;;8.80;99.90;;;;;;4810167;29;20309;-85
2023/11/07 01:44:33;;;;;;;4.43;0.93;;;8.80;99.90;;;;;;4809889;29;20645;-84
2023/11/07 01:46:59;;;;;;;8.35;1.45;;;8.90;99.90;;;;;;4810020;29;20224;-83
2023/11/07 01:49:27;;;;;;;2.22;0.80;;;8.90;99.90;;;;;;4810315;29;20587;-84
2023/11/07 01:51:57;;;;;;;2.20;1.02;;;8.90;99.90;;;;;;4809901;29;20210;-89
2023/11/07 01:54:26;;;;;;;7.32;0.98;;;9.00;99.90;;;;;;4810581;29;20186;-88
2023/11/07 01:56:53;;;;;;;4.32;0.93;;;9.00;99.90;;;;;;4813556;29;20190;-86
2023/11/07 01:59:18;;;;;;;3.45;1.10;;;9.10;99.90;;;;;;4810157;29;20259;-84
2023/11/07 02:01:47;;;;;;;5.97;1.45;;;9.20;99.90;;;;;;4809767;29;20213;-82
2023/11/07 02:04:13;;;;;;;2.22;0.70;;;9.20;99.90;;;;;;4810041;29;20197;-82
2023/11/07 02:06:38;;;;;;;4.05;1.10;;;9.20;99.90;;;;;;4809304;29;20189;-89
2023/11/07 02:09:08;;;;;;;3.47;0.90;;;9.20;99.90;;;;;;4810253;29;20190;-87
2023/11/07 02:11:34;;;;;;;3.75;1.00;;;9.20;99.90;;;;;;4810412;29;20208;-88
2023/11/07 02:14:00;;;;;;;5.90;1.08;;;9.20;99.90;;;;;;4809940;29;20254;-86
2023/11/07 02:16:27;;;;;;;5.75;0.90;;;9.20;99.90;;;;;;4809536;29;20560;-86
2023/11/07 02:18:53;;;;;;;2.78;1.08;;;9.30;99.90;;;;;;4808869;29;20686;-86
2023/11/07 02:21:19;;;;;;;2.83;0.90;;;9.30;99.90;;;;;;4809856;29;20228;-89
2023/11/07 02:23:44;;;;;;;2.50;0.85;;;9.30;99.90;;;;;;4809711;29;20657;-85
2023/11/07 02:28:46;;;;;;;4.90;0.98;;;9.40;99.90;;;;;;4928360;23;20260;-85
2023/11/07 02:31:12;;;;;;;3.42;1.00;;;9.30;99.90;;;;;;4809758;29;20190;-84
2023/11/07 02:33:37;;;;;;;3.55;1.00;;;9.30;99.90;;;;;;4810016;29;20217;-83
2023/11/07 02:36:04;;;;;;;1.92;0.82;;;9.30;99.90;;;;;;4826483;29;20197;-83
2023/11/07 02:38:29;;;;;;;4.07;1.10;;;9.30;99.90;;;;;;4809385;29;20221;-83
2023/11/07 02:40:55;;;;;;;2.75;0.98;;;9.30;99.90;;;;;;4810052;29;20251;-80
2023/11/07 02:43:22;;;;;;;3.35;0.88;;;9.30;99.90;;;;;;4825693;29;20229;-84
2023/11/07 02:45:48;;;;;;;2.80;1.05;;;9.30;99.90;;;;;;4809851;29;20245;-83
2023/11/07 02:48:14;;;;;;;2.40;1.02;;;9.30;99.90;;;;;;4809802;29;20205;-84
2023/11/07 02:50:40;;;;;;;1.67;0.90;;;9.40;99.90;;;;;;4809838;29;20672;-83
2023/11/07 02:53:06;;;;;;;4.50;0.98;;;9.30;99.90;;;;;;4809848;29;20276;-83
2023/11/07 02:55:32;;;;;;;6.03;0.90;;;9.30;99.90;;;;;;4809723;29;20525;-84
2023/11/07 02:57:58;;;;;;;3.38;1.00;;;9.40;99.90;;;;;;4808665;29;20656;-83
2023/11/07 03:00:26;;;;;;;2.95;1.00;;;9.40;99.90;;;;;;4809604;29;20205;-84
2023/11/07 03:02:52;;;;;;;4.53;1.05;;;9.40;99.90;;;;;;4809763;29;20230;-84
2023/11/07 03:05:18;;;;;;;2.80;1.00;;;9.40;99.90;;;;;;4809710;29;20192;-83
2023/11/07 03:07:43;;;;;;;3.90;1.00;;;9.30;99.90;;;;;;4809472;29;20202;-83
2023/11/07 03:10:10;;;;;;;3.08;1.00;;;9.30;99.90;;;;;;4809767;29;20277;-83
2023/11/07 03:12:36;;;;;;;3.47;1.08;;;9.20;99.90;;;;;;4809329;29;20193;-82
2023/11/07 03:15:02;;;;;;;3.38;1.00;;;9.20;99.90;;;;;;4809691;29;20246;-84
2023/11/07 03:17:27;;;;;;;3.85;1.05;;;9.20;99.90;;;;;;4809121;29;20194;-83
2023/11/07 03:19:58;;;;;;;3.75;0.88;;;9.20;99.90;;;;;;4809633;29;20190;-85
2023/11/07 03:22:26;;;;;;;5.78;1.17;;;9.20;99.90;;;;;;4809509;29;20256;-85
2023/11/07 03:24:52;;;;;;;3.60;1.30;;;9.20;99.90;;;;;;4825863;29;20209;-81
2023/11/07 03:27:17;;;;;;;7.20;1.13;;;9.20;99.90;;;;;;4815696;29;20275;-82
2023/11/07 03:29:44;;;;;;;4.38;1.50;;;9.30;99.90;;;;;;4809566;29;20185;-83
2023/11/07 03:32:11;;;;;;;4.40;1.45;;;9.20;99.90;;;;;;4809531;29;20219;-85
2023/11/07 03:34:37;;;;;;;3.00;1.30;;;9.20;99.90;;;;;;4809305;29;20270;-82
2023/11/07 03:37:03;;;;;;;4.05;1.33;;;9.20;99.90;;;;;;4809259;29;20641;-82
2023/11/07 03:39:29;;;;;;;4.88;1.00;;;9.20;99.90;;;;;;4825687;29;20212;-85
2023/11/07 03:41:55;;;;;;;3.92;1.15;;;9.20;99.90;;;;;;4809459;29;20316;-81
2023/11/07 03:44:20;;;;;;;2.28;0.93;;;9.20;99.90;;;;;;4809233;29;20233;-83
2023/11/07 03:46:46;;;;;;;2.03;0.95;;;9.20;99.90;;;;;;4825687;29;20193;-84
2023/11/07 03:49:13;;;;;;;3.00;0.95;;;9.20;99.90;;;;;;4809502;29;20200;-82
2023/11/07 03:51:39;;;;;;;3.03;0.80;;;9.20;99.90;;;;;;4809528;29;20243;-83
2023/11/07 03:54:05;;;;;;;2.28;1.10;;;9.10;99.90;;;;;;4809299;29;20630;-85
2023/11/07 03:56:31;;;;;;;2.40;1.33;;;9.10;99.90;;;;;;4808977;29;20194;-85
2023/11/07 03:59:05;;;;;;;2.67;1.00;;;9.10;99.90;;;;;;4809024;29;20201;-89
2023/11/07 04:01:37;;;;;;;4.80;1.10;;;9.10;99.90;;;;;;4809202;29;20276;-85
2023/11/07 04:04:03;;;;;;;4.40;1.10;;;9.10;99.90;;;;;;4808958;29;20606;-84
2023/11/07 04:06:30;;;;;;;3.17;1.23;;;9.10;99.90;;;;;;4809168;29;20284;-81
2023/11/07 04:09:04;;;;;;;3.65;1.00;;;9.10;99.90;;;;;;4808693;29;20190;-84
2023/11/07 04:11:30;;;;;;;3.17;0.95;;;9.10;99.90;;;;;;4825252;29;20521;-82
2023/11/07 04:13:56;;;;;;;4.25;1.13;;;9.10;99.90;;;;;;4808723;29;20206;-83
2023/11/07 04:16:22;;;;;;;9.80;1.23;;;9.20;99.90;;;;;;4809127;29;20190;-81
2023/11/07 04:18:53;;;;;;;4.72;1.10;;;9.10;99.90;;;;;;4808871;29;20280;-83
2023/11/07 04:21:19;;;;;;;2.58;0.80;;;9.10;99.90;;;;;;4809033;29;20190;-83
2023/11/07 04:23:45;;;;;;;5.20;0.90;;;9.10;99.90;;;;;;4808566;29;20692;-84
2023/11/07 04:26:10;;;;;;;4.65;1.00;;;9.00;99.90;;;;;;4808998;29;20190;-82
2023/11/07 04:28:39;;;;;;;5.60;1.05;;;9.00;99.90;;;;;;4808002;29;20241;-81
2023/11/07 04:31:07;;;;;;;4.50;1.42;;;9.00;99.90;;;;;;4827965;29;20182;-83
2023/11/07 04:33:33;;;;;;;3.35;0.80;;;8.90;99.90;;;;;;4811686;29;20190;-84
2023/11/07 04:36:00;;;;;;;3.38;1.08;;;8.90;99.90;;;;;;4812167;29;20648;-84
2023/11/07 04:38:26;;;;;;;5.55;1.00;;;8.90;99.90;;;;;;4811846;29;20190;-84
2023/11/07 04:40:52;;;;;;;4.88;1.35;;;8.90;99.90;;;;;;4812245;29;20201;-83
2023/11/07 04:43:18;;;;;;;2.58;1.00;;;8.80;99.90;;;;;;4811844;29;20297;-83
2023/11/07 04:45:44;;;;;;;2.30;0.63;;;8.80;99.90;;;;;;4828419;29;20597;-85
2023/11/07 04:48:13;;;;;;;1.80;0.90;;;8.80;99.90;;;;;;4828269;29;20291;-84
2023/11/07 04:50:49;;;;;;;3.78;1.00;;;8.80;99.90;;;;;;4811851;29;20194;-85
2023/11/07 04:53:15;;;;;;;2.92;1.10;;;8.70;99.90;;;;;;4811267;29;20193;-84
2023/11/07 04:55:40;;;;;;;3.63;0.90;;;8.70;99.90;;;;;;4811873;29;20201;-83
2023/11/07 04:58:06;;;;;;;3.40;0.88;;;8.70;99.90;;;;;;4811567;29;20201;-83
2023/11/07 05:00:33;;;;;;;2.20;1.10;;;8.70;99.90;;;;;;4827939;29;20626;-83
2023/11/07 05:02:59;;;;;;;4.82;0.90;;;8.60;99.90;;;;;;4811523;29;20228;-84
2023/11/07 05:05:25;;;;;;;6.45;1.38;;;8.70;99.90;;;;;;4811919;29;20294;-83
2023/11/07 05:07:51;;;;;;;6.25;1.15;;;8.70;99.90;;;;;;4811672;29;20201;-82
2023/11/07 05:10:20;;;;;;;4.00;0.90;;;8.60;99.90;;;;;;4811676;29;20245;-84
2023/11/07 05:12:46;;;;;;;1.77;0.85;;;8.60;99.90;;;;;;4811458;29;20194;-83
2023/11/07 05:15:11;;;;;;;2.88;0.80;;;8.60;99.90;;;;;;4811742;29;20289;-83
2023/11/07 05:17:38;;;;;;;12.25;1.48;;;8.60;99.90;;;;;;4811607;29;20194;-86
2023/11/07 05:20:10;;;;;;;4.03;1.10;;;8.60;99.90;;;;;;4811308;29;20201;-82
2023/11/07 05:22:39;;;;;;;4.53;0.82;;;8.60;99.90;;;;;;4811264;29;20225;-82
2023/11/07 05:25:08;;;;;;;6.27;1.40;;;8.60;99.90;;;;;;4810956;29;20185;-83
2023/11/07 05:27:34;;;;;;;2.65;0.80;;;8.60;99.90;;;;;;4827005;29;20279;-82
2023/11/07 05:30:00;;;;;;;2.90;1.00;;;8.60;99.90;;;;;;4811306;29;20190;-83
2023/11/07 05:32:27;;;;;;;3.35;0.82;;;8.50;99.90;;;;;;4827179;29;20264;-83
2023/11/07 05:34:52;;;;;;;3.22;1.35;;;8.50;99.90;;;;;;4811203;29;20194;-82
2023/11/07 05:37:18;;;;;;;3.95;1.10;;;8.50;99.90;;;;;;4809978;29;20189;-82
2023/11/07 05:39:45;;;;;;;3.40;1.13;;;8.50;99.90;;;;;;4810562;29;20190;-82
2023/11/07 05:42:12;;;;;;;5.53;1.43;;;8.50;99.90;;;;;;4810787;29;20228;-82
2023/11/07 05:44:38;;;;;;;2.70;1.20;;;8.50;99.90;;;;;;4810061;29;20198;-86
2023/11/07 05:47:04;;;;;;;4.00;1.17;;;8.50;99.90;;;;;;4810142;29;20198;-82
2023/11/07 05:49:30;;;;;;;6.27;1.10;;;8.50;99.90;;;;;;4806958;29;20190;-83
2023/11/07 05:51:56;;;;;;;5.07;1.00;;;8.50;99.90;;;;;;4826915;29;20186;-83
2023/11/07 05:54:23;;;;;;;4.03;1.03;;;8.50;99.90;;;;;;4810462;29;20597;-82
2023/11/07 05:56:49;;;;;;;3.15;0.90;;;8.50;99.90;;;;;;4810635;29;20218;-84
2023/11/07 05:59:15;;;;;;;4.68;1.15;;;8.50;99.90;;;;;;4810417;29;20232;-82
2023/11/07 06:01:40;;;;;;;2.65;0.90;;;8.50;99.90;;;;;;4826043;29;20190;-82
2023/11/07 06:04:08;;;;;;;2.95;0.80;;;8.50;99.90;;;;;;4810908;29;20555;-84
2023/11/07 06:06:34;;;;;;;2.40;0.90;;;8.50;99.90;;;;;;4810690;29;20193;-83
2023/11/07 06:09:01;;;;;;;4.60;1.10;;;8.50;99.90;;;;;;4810844;29;20194;-83
2023/11/07 06:11:28;;;;;;;3.30;1.10;;;8.50;99.90;;;;;;4810309;29;20198;-83
2023/11/07 06:13:54;;;;;;;2.40;0.90;;;8.50;99.90;;;;;;4809828;29;20186;-83
2023/11/07 06:16:21;;;;;;;1.75;0.75;;;8.50;99.90;;;;;;4810584;29;20201;-83
2023/11/07 06:18:47;;;;;;;4.33;1.03;;;8.50;99.90;;;;;;4810376;29;20507;-83
2023/11/07 06:21:13;;;;;;;4.50;1.00;;;8.60;99.90;;;;;;4810931;29;20285;-83
2023/11/07 06:23:39;;;;;;;2.97;0.95;;;8.60;99.90;;;;;;4817382;29;20214;-86
2023/11/07 06:26:06;;;;;;;5.35;1.30;;;8.70;99.90;;;;;;4810207;29;20581;-82
2023/11/07 06:28:32;;;;;;;3.03;1.13;;;8.70;99.90;;;;;;4809512;29;20268;-84
2023/11/07 06:30:58;;;;;;;3.35;0.95;;;8.70;99.90;;;;;;4810319;29;20202;-83
2023/11/07 06:33:24;;;;;;;3.03;0.90;;;8.80;99.90;;;;;;4833838;29;20237;-84
2023/11/07 06:35:50;;;;;;;3.20;1.00;;;8.80;99.90;;;;;;4809409;29;20285;-85
2023/11/07 06:38:17;;;;;;;1.42;0.90;;;8.80;99.90;;;;;;4817595;29;20628;-83
2023/11/07 06:40:43;;;;;;;3.80;1.03;;;8.80;99.90;;;;;;4826279;29;20197;-83
2023/11/07 06:43:09;;;;;;;2.17;1.00;;;8.80;99.90;;;;;;4809536;29;20225;-82
2023/11/07 06:45:35;;;;;;;2.67;0.87;;;8.70;99.90;;;;;;4810054;29;20193;-83
2023/11/07 06:48:01;;;;;;;2.87;0.90;;;8.80;99.90;;;;;;4809949;29;20193;-82
2023/11/07 06:50:27;;;;;;;2.67;1.00;;;8.80;99.90;;;;;;4809891;29;20189;-84
2023/11/07 06:52:53;;;;;;;2.00;0.80;;;8.90;99.90;;;;;;4825929;29;20197;-84
2023/11/07 06:55:24;;;;;;;4.68;1.00;;;8.90;99.90;;;;;;4812144;29;20190;-82
2023/11/07 06:57:51;;;;;;;2.70;1.10;;;8.90;99.90;;;;;;4809770;29;20201;-84
2023/11/07 07:00:21;;;;;;;3.90;1.20;;;9.00;99.90;;;;;;4810191;29;20221;-82
2023/11/07 07:02:48;;;;;;;5.50;1.33;;;9.00;99.90;;;;;;4808956;29;20304;-83
2023/11/07 07:05:15;;;;;;;7.67;1.30;;;9.00;99.90;;;;;;4809752;29;20186;-82
2023/11/07 07:07:42;;;;;;;3.23;0.90;;;9.00;99.90;;;;;;4809789;29;20198;-83
2023/11/07 07:10:09;;;;;;;2.08;0.90;;;9.10;99.90;;;;;;4809561;29;20284;-79
2023/11/07 07:12:37;;;;;;;1.80;1.20;;;9.10;99.90;;;;;;4809566;29;20229;-83
2023/11/07 07:15:06;;;;;;;3.70;1.10;;;9.10;99.90;;;;;;4809753;29;20245;-84
2023/11/07 07:17:32;;;;;;;6.78;1.30;;;9.20;99.90;;;;;;4809278;29;20223;-83
2023/11/07 07:19:58;;;;;;;3.78;1.13;;;9.20;99.90;;;;;;4809621;29;20185;-83
2023/11/07 07:22:27;;;;;;;5.22;1.67;;;9.20;99.90;;;;;;4825623;29;20206;-84
2023/11/07 07:24:59;;;;;;;2.80;1.30;;;9.20;99.90;;;;;;4825776;29;20224;-82
2023/11/07 07:27:27;;;;;;;3.38;1.10;;;9.30;99.90;;;;;;4805950;29;20294;-84
2023/11/07 07:29:56;;;;;;;3.10;1.13;;;9.30;99.90;;;;;;4807616;29;20518;-84
2023/11/07 07:32:23;;;;;;;4.05;1.20;;;9.30;99.90;;;;;;4806671;29;20231;-82
2023/11/07 07:34:49;;;;;;;4.90;1.27;;;9.30;99.90;;;;;;4806361;29;20698;-82
2023/11/07 07:37:20;;;;;;;2.47;1.00;;;9.40;99.90;;;;;;4807353;29;20229;-81
2023/11/07 07:39:49;;;;;;;3.60;1.35;;;9.30;99.90;;;;;;4806433;29;20195;-83
2023/11/07 07:42:17;;;;;;;2.70;1.20;;;9.30;99.90;;;;;;4806417;29;20565;-85
2023/11/07 07:44:43;;;;;;;7.07;1.25;;;9.30;99.90;;;;;;4806427;29;20201;-84
2023/11/07 07:47:10;;;;;;;2.58;1.02;;;9.30;99.90;;;;;;4807648;29;20226;-84
2023/11/07 07:49:36;;;;;;;3.05;1.10;;;9.30;99.90;;;;;;4805946;29;20191;-80
2023/11/07 07:52:02;;;;;;;3.55;1.00;;;9.30;99.90;;;;;;4805999;29;20198;-83
2023/11/07 07:54:31;;;;;;;6.45;0.90;;;9.30;99.90;;;;;;4806286;29;20293;-83
2023/11/07 07:56:57;;;;;;;7.97;1.63;;;9.40;99.90;;;;;;4804972;29;20191;-82
2023/11/07 07:59:23;;;;;;;5.35;1.00;;;9.40;99.90;;;;;;4806180;29;20194;-83
2023/11/07 08:01:57;;;;;;;3.42;0.85;;;9.50;99.90;;;;;;4798743;29;20194;-82
2023/11/07 08:04:24;;;;;;;2.88;1.10;;;9.50;99.90;;;;;;4809476;29;20210;-84
2023/11/07 08:06:50;;;;;;;3.65;1.23;;;9.60;99.90;;;;;;4809622;29;20249;-84
2023/11/07 08:09:22;;;;;;;3.90;1.20;;;9.60;99.90;;;;;;4809768;29;20195;-83
2023/11/07 08:11:50;;;;;;;4.38;1.20;;;9.70;99.90;;;;;;4816932;29;20514;-83
2023/11/07 08:14:17;;;;;;;4.30;1.00;;;9.70;99.90;;;;;;4809762;29;20198;-83
2023/11/07 08:16:43;;;;;;;2.92;1.42;;;9.80;99.90;;;;;;4808894;29;20274;-84
2023/11/07 08:19:10;;;;;;;6.55;1.73;;;9.80;99.90;;;;;;4808871;29;20665;-82
2023/11/07 08:21:39;;;;;;;4.30;1.00;;;9.80;99.90;;;;;;4809427;29;20198;-85
2023/11/07 08:24:06;;;;;;;3.97;1.33;;;9.80;99.90;;;;;;4809323;29;20535;-82
2023/11/07 08:26:35;;;;;;;3.80;1.10;;;9.80;99.90;;;;;;4805759;29;20179;-83
2023/11/07 08:29:08;;;;;;;3.97;1.13;;;9.90;99.90;;;;;;4808289;29;20269;-83
2023/11/07 08:31:38;;;;;;;3.53;1.13;;;9.90;99.90;;;;;;4809304;29;20226;-82
2023/11/07 08:34:09;;;;;;;3.75;1.30;;;9.90;99.90;;;;;;4809669;29;20673;-84
2023/11/07 08:36:40;;;;;;;4.38;1.00;;;10.00;99.90;;;;;;4810376;29;20186;-83
2023/11/07 08:39:19;;;;;;;3.40;1.20;;;10.00;99.90;;;;;;4809524;29;20282;-83
2023/11/07 08:41:45;;;;;;;1.55;0.90;;;10.00;99.90;;;;;;4810396;29;20562;-83
2023/11/07 08:44:11;;;;;;;5.35;1.30;;;10.10;99.90;;;;;;4808891;29;20203;-84
2023/11/07 08:46:36;;;;;;;2.33;1.08;;;10.10;99.90;;;;;;4809176;29;20201;-83
2023/11/07 08:49:02;;;;;;;2.08;1.10;;;10.20;99.90;;;;;;4809428;29;20596;-83
2023/11/07 08:51:28;;;;;;;2.33;1.00;;;10.20;99.90;;;;;;4809158;29;20277;-83
2023/11/07 08:53:55;;;;;;;3.00;0.93;;;10.10;99.90;;;;;;4809010;29;20242;-83
2023/11/07 08:56:24;;;;;;;3.17;0.75;;;10.20;99.90;;;;;;4809071;29;20201;-82
2023/11/07 08:58:50;;;;;;;2.35;0.90;;;10.30;99.90;;;;;;4802017;29;20225;-84
2023/11/07 09:01:18;;;;;;;4.03;0.93;;;10.30;99.90;;;;;;4809069;29;20639;-83
2023/11/07 09:03:45;;;;;;;1.95;0.95;;;10.40;99.90;;;;;;4809860;29;20234;-83
2023/11/07 09:06:11;;;;;;;2.08;1.10;;;10.50;99.90;;;;;;4816493;29;20186;-83
2023/11/07 09:08:37;;;;;;;5.15;1.10;;;10.50;99.90;;;;;;4809869;29;20198;-84
2023/11/07 09:11:03;;;;;;;3.20;1.10;;;10.60;99.90;;;;;;4810232;29;20217;-84
2023/11/07 09:13:30;;;;;;;2.45;0.68;;;10.70;99.90;;;;;;4808212;29;20289;-82
2023/11/07 09:15:58;;;;;;;2.97;1.17;;;10.80;99.90;;;;;;4808976;29;20706;-87
2023/11/07 09:18:26;;;;;;;1.65;0.80;;;10.90;99.90;;;;;;4808644;29;20274;-84
2023/11/07 09:20:52;;;;;;;3.33;1.02;;;10.90;99.90;;;;;;4801741;29;20191;-84
2023/11/07 09:23:21;;;;;;;2.92;0.93;;;11.00;99.90;;;;;;4808531;29;20226;-85
2023/11/07 09:25:47;;;;;;;4.03;1.25;;;11.00;99.90;;;;;;4808472;29;20195;-86
2023/11/07 09:28:13;;;;;;;2.92;0.80;;;11.10;99.90;;;;;;4821003;29;20238;-87
2023/11/07 09:30:38;;;;;;;2.05;0.80;;;11.20;99.90;;;;;;4818673;29;20625;-81
2023/11/07 09:33:09;;;;;;;3.78;0.77;;;11.20;99.90;;;;;;4818301;29;20702;-84
2023/11/07 09:35:35;;;;;;;2.15;0.80;;;11.20;99.90;;;;;;4827396;29;20190;-85
2023/11/07 09:38:03;;;;;;;1.33;0.80;;;11.10;99.90;;;;;;4811259;29;20197;-83
2023/11/07 09:40:29;;;;;;;1.67;0.68;;;11.00;99.90;;;;;;4827570;29;20189;-84
2023/11/07 09:43:01;;;;;;;4.03;0.80;;;11.00;99.90;;;;;;4811330;29;20665;-83
2023/11/07 09:45:34;;;;;;;5.03;0.85;;;11.00;99.90;;;;;;4827463;29;20186;-86
2023/11/07 09:48:00;;;;;;;2.40;0.77;;;11.00;99.90;;;;;;4811332;29;20197;-85
2023/11/07 09:50:28;;;;;;;4.13;0.90;;;10.90;99.90;;;;;;4810973;29;20190;-83
2023/11/07 09:52:54;;;;;;;1.85;1.00;;;10.80;99.90;;;;;;4811237;29;20198;-84
2023/11/07 09:55:21;;;;;;;3.58;0.77;;;10.80;99.90;;;;;;4826590;29;20189;-86
2023/11/07 09:58:03;;;;;;;2.83;0.70;;;10.80;99.90;;;;;;4810683;29;20197;-84
2023/11/07 10:00:33;;;;;;;2.35;0.77;;;11.00;99.90;;;;;;4810835;29;20205;-83
2023/11/07 10:03:00;;;;;;;4.97;0.80;;;11.10;99.90;;;;;;4810965;29;20559;-84
2023/11/07 10:05:29;;;;;;;4.32;0.90;;;11.20;99.90;;;;;;4810859;29;20190;-83
2023/11/07 10:07:57;;;;;;;2.83;0.80;;;11.30;99.90;;;;;;4810927;29;20224;-85
2023/11/07 10:10:24;;;;;;;2.63;0.90;;;11.40;99.90;;;;;;4810839;29;20281;-84
2023/11/07 10:12:51;;;;;;;2.65;0.80;;;11.50;99.90;;;;;;4810879;29;20280;-84
2023/11/07 10:15:24;;;;;;;4.68;1.20;;;11.50;99.90;;;;;;4810446;29;20194;-85
2023/11/07 10:18:04;;;;;;;0.90;0.60;;;11.50;99.90;;;;;;4805585;29;20201;-84
2023/11/07 10:20:31;;;;;;;1.52;0.70;;;11.50;99.90;;;;;;4813315;29;20193;-85
2023/11/07 10:22:58;;;;;;;2.40;0.70;;;11.50;99.90;;;;;;4810604;29;20294;-87
2023/11/07 10:25:38;;;;;;;3.30;0.88;;;11.30;99.90;;;;;;4810154;29;20202;-85
2023/11/07 10:28:08;;;;;;;4.10;0.98;;;11.20;99.90;;;;;;4809904;29;20587;-84
2023/11/07 10:30:44;;;;;;;1.17;0.70;;;11.20;99.90;;;;;;4810037;29;20198;-82
2023/11/07 10:33:27;;;;;;;1.52;0.70;;;11.10;99.90;;;;;;4810420;29;20216;-82
2023/11/07 10:36:02;;;;;;;1.67;0.60;;;11.20;99.90;;;;;;4819561;29;20198;-81
2023/11/07 10:38:29;;;;;;;1.02;0.60;;;11.30;99.90;;;;;;4809924;29;20201;-86
2023/11/07 10:40:55;;;;;;;4.50;0.95;;;11.30;99.90;;;;;;4809949;29;20186;-85
2023/11/07 10:43:33;;;;;;;1.88;0.60;;;11.20;99.90;;;;;;4826175;29;20270;-84
2023/11/07 10:46:02;;;;;;;3.78;0.90;;;11.30;99.90;;;;;;4809994;29;20193;-84
2023/11/07 10:48:33;;;;;;;2.00;0.80;;;11.30;99.90;;;;;;4809258;29;20197;-84
2023/11/07 10:51:03;;;;;;;7.38;1.00;;;11.30;99.90;;;;;;4809514;29;20194;-84
2023/11/07 10:53:33;;;;;;;3.63;0.80;;;11.30;99.90;;;;;;4809852;29;20193;-82
2023/11/07 10:56:00;;;;;;;1.98;0.90;;;11.30;99.90;;;;;;4810001;29;20233;-83
2023/11/07 10:58:31;;;;;;;2.38;0.73;;;11.30;99.90;;;;;;4809294;29;20960;-82
2023/11/07 11:01:01;;;;;;;1.80;0.85;;;11.50;99.90;;;;;;4826050;29;20285;-82
2023/11/07 11:03:33;;;;;;;2.67;1.33;;;11.80;99.90;;;;;;4825925;29;20253;-83
2023/11/07 11:06:02;;;;;;;1.25;0.60;;;11.90;99.90;;;;;;4809835;29;20185;-83
2023/11/07 11:08:31;;;;;;;2.65;0.70;;;12.00;99.90;;;;;;4816783;29;20197;-84
2023/11/07 11:11:03;;;;;;;2.17;0.70;;;12.20;99.90;;;;;;4826181;29;20234;-82
2023/11/07 11:13:31;;;;;;;2.88;0.90;;;12.20;99.90;;;;;;4816980;29;20201;-84
2023/11/07 11:15:58;;;;;;;1.35;0.50;;;12.20;99.90;;;;;;4809785;29;20222;-81
2023/11/07 11:18:44;;;;;;;1.48;0.70;;;12.30;99.90;;;;;;4825771;29;20189;-84
2023/11/07 11:21:16;;;;;;;4.95;0.70;;;12.30;99.90;;;;;;4826054;29;20182;-82
2023/11/07 11:23:54;;;;;;;1.02;0.50;;;12.40;99.90;;;;;;4809412;29;20276;-83
2023/11/07 11:26:31;;;;;;;1.77;0.57;;;12.30;99.90;;;;;;4809411;29;20274;-84
2023/11/07 11:28:57;;;;;;;1.40;0.57;;;12.20;99.90;;;;;;4809007;29;20241;-83
2023/11/07 11:31:27;;;;;;;3.25;0.65;;;12.10;99.90;;;;;;4809609;29;20524;-83
2023/11/07 11:34:29;;;;;;;1.33;0.57;;;12.00;99.90;;;;;;4802340;29;20186;-82
2023/11/07 11:37:01;;;;;;;2.22;0.95;;;11.80;99.90;;;;;;4809258;29;20224;-83
2023/11/07 11:39:35;;;;;;;2.03;0.60;;;11.80;99.90;;;;;;4808829;29;20704;-83
2023/11/07 11:42:04;;;;;;;3.28;0.70;;;11.70;99.90;;;;;;4808186;29;20712;-83
2023/11/07 11:44:31;;;;;;;2.03;0.70;;;11.70;99.90;;;;;;4807858;29;20559;-85
2023/11/07 11:46:58;;;;;;;3.17;0.80;;;11.80;99.90;;;;;;4807784;29;20249;-84
2023/11/07 11:49:24;;;;;;;1.77;0.73;;;11.90;99.90;;;;;;4809209;29;20572;-84
2023/11/07 11:51:54;;;;;;;8.80;0.90;;;12.00;99.90;;;;;;4801816;29;20339;-86
2023/11/07 11:54:25;;;;;;;1.63;0.50;;;12.20;99.90;;;;;;4809780;29;20185;-85
2023/11/07 11:56:50;;;;;;;1.48;0.65;;;12.30;99.90;;;;;;4809303;29;20242;-84
2023/11/07 11:59:30;;;;;;;1.48;0.60;;;12.40;99.90;;;;;;4808973;29;20280;-84
2023/11/07 12:02:03;;;;;;;0.85;0.52;;;12.30;99.90;;;;;;4809244;29;20213;-83
2023/11/07 12:04:48;;;;;;;1.05;0.43;;;12.20;99.90;;;;;;4809180;29;20193;-86
2023/11/07 12:07:14;;;;;;;1.92;0.90;;;12.10;99.90;;;;;;4808964;29;20247;-83
2023/11/07 12:10:08;;;;;;;1.52;0.60;;;12.00;99.90;;;;;;4809177;29;20201;-82
2023/11/07 12:12:37;;;;;;;3.90;0.68;;;12.00;99.90;;;;;;4806261;29;20289;-86
2023/11/07 12:15:04;;;;;;;1.38;0.60;;;11.90;99.90;;;;;;4825319;29;20611;-84
2023/11/07 12:17:42;;;;;;;1.73;0.70;;;11.90;99.90;;;;;;4809365;29;20281;-83
2023/11/07 12:20:11;;;;;;;1.40;0.60;;;11.90;99.90;;;;;;4809283;29;20194;-85
2023/11/07 12:22:40;;;;;;;2.90;0.60;;;11.90;99.90;;;;;;4808975;29;20226;-83
2023/11/07 12:25:20;;;;;;;5.53;0.63;;;12.00;99.90;;;;;;4808858;29;20197;-85
2023/11/07 12:28:02;;;;;;;1.63;0.63;;;12.10;99.90;;;;;;4825204;29;20252;-84
2023/11/07 12:30:29;;;;;;;2.53;0.60;;;12.10;99.90;;;;;;4825007;29;20504;-83
2023/11/07 12:33:02;;;;;;;2.28;0.60;;;12.00;99.90;;;;;;4808857;29;20201;-87
2023/11/07 12:35:30;;;;;;;1.77;0.57;;;12.00;99.90;;;;;;4808995;29;20281;-84
2023/11/07 12:37:59;;;;;;;1.40;0.63;;;12.00;99.90;;;;;;4809028;29;20202;-86
2023/11/07 12:40:25;;;;;;;1.10;0.70;;;12.00;99.90;;;;;;4809192;29;20194;-84
2023/11/07 12:42:52;;;;;;;0.82;0.50;;;11.90;99.90;;;;;;4817742;29;20206;-85
2023/11/07 12:45:25;;;;;;;1.52;0.55;;;11.90;99.90;;;;;;4808120;29;20685;-84
2023/11/07 12:48:05;;;;;;;1.88;0.50;;;11.80;99.90;;;;;;4807658;29;20194;-83
2023/11/07 12:50:38;;;;;;;2.53;0.43;;;11.80;99.90;;;;;;4809376;29;20246;-85
2023/11/07 12:53:05;;;;;;;2.00;0.40;;;11.70;99.90;;;;;;4832629;29;20209;-85
2023/11/07 12:55:39;;;;;;;1.08;0.60;;;11.70;99.90;;;;;;4830219;29;20216;-84
2023/11/07 12:58:06;;;;;;;0.95;0.50;;;11.80;99.90;;;;;;4810900;29;20185;-83
2023/11/07 13:00:54;;;;;;;4.72;0.55;;;11.70;99.90;;;;;;4827574;29;20244;-84